createdAt,value
2019-04-26T00:00:27.851Z,18.29
2019-04-26T00:01:27.819Z,18.29
2019-04-26T00:02:27.814Z,18.20
2019-04-26T00:03:27.866Z,18.20
2019-04-26T00:04:27.806Z,18.34
2019-04-26T00:05:34.378Z,18.33
2019-04-26T00:06:27.797Z,18.22
2019-04-26T00:07:27.764Z,18.11
2019-04-26T00:08:27.754Z,18.19
2019-04-26T00:09:27.756Z,18.13
2019-04-26T00:10:27.753Z,18.13
2019-04-26T00:11:27.719Z,18.22
2019-04-26T00:12:27.727Z,18.15
2019-04-26T00:13:27.689Z,18.08
2019-04-26T00:14:27.742Z,18.07
2019-04-26T00:15:27.683Z,18.05
2019-04-26T00:16:27.682Z,18.10
2019-04-26T00:17:27.659Z,18.03
2019-04-26T00:18:27.663Z,17.92
2019-04-26T00:19:27.630Z,18.03
2019-04-26T00:20:27.636Z,17.94
2019-04-26T00:21:27.622Z,17.97
2019-04-26T00:22:27.597Z,17.90
2019-04-26T00:23:27.598Z,17.80
2019-04-26T00:24:28.549Z,17.85
2019-04-26T00:25:27.608Z,17.85
2019-04-26T00:26:27.561Z,17.89
2019-04-26T00:27:27.550Z,17.79
2019-04-26T00:28:27.536Z,17.82
2019-04-26T00:29:27.551Z,17.80
2019-04-26T00:30:27.508Z,17.85
2019-04-26T00:31:27.561Z,17.79
2019-04-26T00:32:27.491Z,17.82
2019-04-26T00:33:27.497Z,17.71
2019-04-26T00:34:27.472Z,17.79
2019-04-26T00:35:27.471Z,17.79
2019-04-26T00:36:27.482Z,17.85
2019-04-26T00:37:27.440Z,17.76
2019-04-26T00:38:27.426Z,17.68
2019-04-26T00:39:27.421Z,17.64
2019-04-26T00:40:27.409Z,17.59
2019-04-26T00:41:27.458Z,17.64
2019-04-26T00:42:27.379Z,17.64
2019-04-26T00:43:27.372Z,17.64
2019-04-26T00:44:27.359Z,17.60
2019-04-26T00:45:27.351Z,17.57
2019-04-26T00:46:27.353Z,17.52
2019-04-26T00:47:27.968Z,17.49
2019-04-26T00:48:27.324Z,17.57
2019-04-26T00:49:27.303Z,17.51
2019-04-26T00:50:27.309Z,17.51
2019-04-26T00:51:27.283Z,17.57
2019-04-26T00:52:27.331Z,17.59
2019-04-26T00:53:27.286Z,17.54
2019-04-26T00:54:27.246Z,17.45
2019-04-26T00:55:27.237Z,17.48
2019-04-26T00:56:27.239Z,17.38
2019-04-26T00:57:27.220Z,17.46
2019-04-26T00:58:27.241Z,17.46
2019-04-26T00:59:27.187Z,17.45
2019-04-26T01:00:27.179Z,17.36
2019-04-26T01:01:27.961Z,17.42
2019-04-26T01:02:27.182Z,17.34
2019-04-26T01:03:27.193Z,17.38
2019-04-26T01:04:27.261Z,17.29
2019-04-26T01:05:27.132Z,17.29
2019-04-26T01:06:27.197Z,17.27
2019-04-26T01:07:27.113Z,17.30
2019-04-26T01:08:27.101Z,17.33
2019-04-26T01:09:27.288Z,17.26
2019-04-26T01:10:27.111Z,17.23
2019-04-26T01:11:27.098Z,17.27
2019-04-26T01:12:27.117Z,17.24
2019-04-26T01:13:27.051Z,17.16
2019-04-26T01:14:27.030Z,17.20
2019-04-26T01:15:27.043Z,17.20
2019-04-26T01:16:27.004Z,17.16
2019-04-26T01:17:27.035Z,17.24
2019-04-26T01:18:27.043Z,17.16
2019-04-26T01:19:26.989Z,17.19
2019-04-26T01:20:26.966Z,17.19
2019-04-26T01:21:26.970Z,17.16
2019-04-26T01:22:27.636Z,17.15
2019-04-26T01:23:27.296Z,17.14
2019-04-26T01:24:27.304Z,17.12
2019-04-26T01:25:27.425Z,17.12
2019-04-26T01:26:27.444Z,17.22
2019-04-26T01:27:27.717Z,17.15
2019-04-26T01:28:27.772Z,17.14
2019-04-26T01:29:27.926Z,17.12
2019-04-26T01:30:27.923Z,17.06
2019-04-26T01:31:26.842Z,16.99
2019-04-26T01:32:26.905Z,16.97
2019-04-26T01:33:26.840Z,16.97
2019-04-26T01:34:26.811Z,17.01
2019-04-26T01:35:26.822Z,17.05
2019-04-26T01:36:26.815Z,16.94
2019-04-26T01:37:26.772Z,16.84
2019-04-26T01:38:27.676Z,16.87
2019-04-26T01:39:27.907Z,17.01
2019-04-26T01:40:26.780Z,16.96
2019-04-26T01:41:26.741Z,16.96
2019-04-26T01:42:26.750Z,17.06
2019-04-26T01:43:26.718Z,16.90
2019-04-26T01:44:26.725Z,16.96
2019-04-26T01:45:27.827Z,16.94
2019-04-26T01:46:26.898Z,17.05
2019-04-26T01:47:26.675Z,16.96
2019-04-26T01:48:27.130Z,16.96
2019-04-26T01:49:26.655Z,16.94
2019-04-26T01:50:27.419Z,16.91
2019-04-26T01:51:26.682Z,17.01
2019-04-26T01:52:27.628Z,16.97
2019-04-26T01:53:26.661Z,16.93
2019-04-26T01:54:27.762Z,16.86
2019-04-26T01:55:27.029Z,17.01
2019-04-26T01:56:27.115Z,16.87
2019-04-26T01:57:27.264Z,16.81
2019-04-26T01:58:27.220Z,16.83
2019-04-26T01:59:27.420Z,16.90
2019-04-26T02:00:27.461Z,16.89
2019-04-26T02:01:27.427Z,16.83
2019-04-26T02:02:27.678Z,16.84
2019-04-26T02:03:26.738Z,16.83
2019-04-26T02:04:26.487Z,16.76
2019-04-26T02:05:26.479Z,16.75
2019-04-26T02:06:31.297Z,16.71
2019-04-26T02:07:26.466Z,16.61
2019-04-26T02:08:26.434Z,16.64
2019-04-26T02:09:26.428Z,16.61
2019-04-26T02:10:26.704Z,16.60
2019-04-26T02:11:26.715Z,16.54
2019-04-26T02:12:26.738Z,16.51
2019-04-26T02:13:26.851Z,16.54
2019-04-26T02:14:26.932Z,16.46
2019-04-26T02:15:27.211Z,16.47
2019-04-26T02:16:27.023Z,16.54
2019-04-26T02:17:27.282Z,16.56
2019-04-26T02:18:27.299Z,16.57
2019-04-26T02:19:27.424Z,16.53
2019-04-26T02:20:26.309Z,16.50
2019-04-26T02:21:26.552Z,16.50
2019-04-26T02:22:26.287Z,16.49
2019-04-26T02:23:26.461Z,16.47
2019-04-26T02:24:26.453Z,16.49
2019-04-26T02:25:26.250Z,16.46
2019-04-26T02:26:26.669Z,16.35
2019-04-26T02:27:26.316Z,16.24
2019-04-26T02:28:26.786Z,16.13
2019-04-26T02:29:26.841Z,15.97
2019-04-26T02:30:27.070Z,15.90
2019-04-26T02:31:27.324Z,15.83
2019-04-26T02:32:27.445Z,15.84
2019-04-26T02:33:27.486Z,15.90
2019-04-26T02:34:28.972Z,15.79
2019-04-26T02:35:27.186Z,15.77
2019-04-26T02:36:44.965Z,15.77
2019-04-26T02:37:28.748Z,15.65
2019-04-26T02:38:27.902Z,15.75
2019-04-26T02:39:29.374Z,15.67
2019-04-26T02:40:27.769Z,15.67
2019-04-26T02:41:27.667Z,15.73
2019-04-26T02:42:26.616Z,15.76
2019-04-26T02:43:27.875Z,15.73
2019-04-26T02:44:26.654Z,15.70
2019-04-26T02:45:28.335Z,15.72
2019-04-26T02:46:28.495Z,15.61
2019-04-26T02:47:26.955Z,15.58
2019-04-26T02:48:27.145Z,15.57
2019-04-26T02:49:27.467Z,15.51
2019-04-26T02:50:28.316Z,15.54
2019-04-26T02:51:28.450Z,15.46
2019-04-26T02:52:27.898Z,15.46
2019-04-26T02:53:27.495Z,15.51
2019-04-26T02:54:25.937Z,15.37
2019-04-26T02:55:25.923Z,15.27
2019-04-26T02:56:25.934Z,15.18
2019-04-26T02:57:25.919Z,15.17
2019-04-26T02:58:25.908Z,15.10
2019-04-26T02:59:25.904Z,15.03
2019-04-26T03:00:25.864Z,15.10
2019-04-26T03:01:25.924Z,15.04
2019-04-26T03:02:25.885Z,15.03
2019-04-26T03:03:25.840Z,14.97
2019-04-26T03:04:25.831Z,14.88
2019-04-26T03:05:25.851Z,14.81
2019-04-26T03:06:25.805Z,14.86
2019-04-26T03:07:25.841Z,14.79
2019-04-26T03:08:25.799Z,14.78
2019-04-26T03:09:25.768Z,14.79
2019-04-26T03:10:25.780Z,14.86
2019-04-26T03:11:25.746Z,14.89
2019-04-26T03:12:25.792Z,14.88
2019-04-26T03:13:25.728Z,14.79
2019-04-26T03:14:25.740Z,14.72
2019-04-26T03:15:25.706Z,14.73
2019-04-26T03:16:25.727Z,14.69
2019-04-26T03:17:25.690Z,14.69
2019-04-26T03:18:25.687Z,14.62
2019-04-26T03:19:25.672Z,14.51
2019-04-26T03:20:25.646Z,14.50
2019-04-26T03:21:25.649Z,14.41
2019-04-26T03:22:25.648Z,14.45
2019-04-26T03:23:41.412Z,14.37
2019-04-26T03:24:25.673Z,14.33
2019-04-26T03:25:25.612Z,14.26
2019-04-26T03:26:25.579Z,14.20
2019-04-26T03:27:25.585Z,14.26
2019-04-26T03:28:25.560Z,14.10
2019-04-26T03:29:25.597Z,14.12
2019-04-26T03:30:25.549Z,14.12
2019-04-26T03:31:25.563Z,14.12
2019-04-26T03:32:25.524Z,14.17
2019-04-26T03:33:25.738Z,14.08
2019-04-26T03:34:25.551Z,14.05
2019-04-26T03:35:25.481Z,14.03
2019-04-26T03:36:25.478Z,14.04
2019-04-26T03:37:25.471Z,14.14
2019-04-26T03:38:25.477Z,14.22
2019-04-26T03:39:25.459Z,14.18
2019-04-26T03:40:25.487Z,14.17
2019-04-26T03:41:25.419Z,14.17
2019-04-26T03:42:25.434Z,14.17
2019-04-26T03:43:25.401Z,14.14
2019-04-26T03:44:25.397Z,14.12
2019-04-26T03:45:25.462Z,14.05
2019-04-26T03:46:25.361Z,14.00
2019-04-26T03:47:25.357Z,14.05
2019-04-26T03:48:25.345Z,14.08
2019-04-26T03:49:25.351Z,14.12
2019-04-26T03:50:25.368Z,14.15
2019-04-26T03:51:25.348Z,14.20
2019-04-26T03:52:25.305Z,14.28
2019-04-26T03:53:25.290Z,14.25
2019-04-26T03:54:25.273Z,14.28
2019-04-26T03:55:25.283Z,14.33
2019-04-26T03:56:25.295Z,14.45
2019-04-26T03:57:25.240Z,14.47
2019-04-26T03:58:25.235Z,14.48
2019-04-26T03:59:25.234Z,14.43
2019-04-26T04:00:25.215Z,14.45
2019-04-26T04:01:25.266Z,14.47
2019-04-26T04:02:25.187Z,14.54
2019-04-26T04:03:26.925Z,14.47
2019-04-26T04:04:25.170Z,14.51
2019-04-26T04:05:25.190Z,14.54
2019-04-26T04:06:25.160Z,14.54
2019-04-26T04:07:36.918Z,14.63
2019-04-26T04:08:25.124Z,14.60
2019-04-26T04:09:25.106Z,14.60
2019-04-26T04:10:25.101Z,14.62
2019-04-26T04:11:25.143Z,14.62
2019-04-26T04:12:25.186Z,14.73
2019-04-26T04:13:25.082Z,14.70
2019-04-26T04:14:25.092Z,14.70
2019-04-26T04:15:25.043Z,14.77
2019-04-26T04:16:25.037Z,14.68
2019-04-26T04:17:25.028Z,14.72
2019-04-26T04:18:25.032Z,14.70
2019-04-26T04:19:24.997Z,14.78
2019-04-26T04:20:24.982Z,14.89
2019-04-26T04:21:24.986Z,14.79
2019-04-26T04:22:24.963Z,14.84
2019-04-26T04:23:25.025Z,14.82
2019-04-26T04:24:24.958Z,14.81
2019-04-26T04:25:24.929Z,14.85
2019-04-26T04:26:24.917Z,14.84
2019-04-26T04:27:24.912Z,14.81
2019-04-26T04:28:24.906Z,14.82
2019-04-26T04:29:39.058Z,14.73
2019-04-26T04:30:25.876Z,14.86
2019-04-26T04:31:24.862Z,14.86
2019-04-26T04:32:24.858Z,14.91
2019-04-26T04:33:24.866Z,14.91
2019-04-26T04:34:24.871Z,14.91
2019-04-26T04:35:24.833Z,14.84
2019-04-26T04:36:24.838Z,14.82
2019-04-26T04:37:24.797Z,14.79
2019-04-26T04:38:24.793Z,14.73
2019-04-26T04:39:24.786Z,14.72
2019-04-26T04:40:24.798Z,14.72
2019-04-26T04:41:24.756Z,14.84
2019-04-26T04:42:24.743Z,14.73
2019-04-26T04:43:24.884Z,14.73
2019-04-26T04:44:24.743Z,14.72
2019-04-26T04:45:24.757Z,14.69
2019-04-26T04:46:24.935Z,14.72
2019-04-26T04:47:25.558Z,14.73
2019-04-26T04:48:24.691Z,14.69
2019-04-26T04:49:24.788Z,14.72
2019-04-26T04:50:24.689Z,14.73
2019-04-26T04:51:24.642Z,14.79
2019-04-26T04:52:24.639Z,14.72
2019-04-26T04:53:24.637Z,14.69
2019-04-26T04:54:24.612Z,14.73
2019-04-26T04:55:24.598Z,14.72
2019-04-26T04:56:24.617Z,14.69
2019-04-26T04:57:24.581Z,14.77
2019-04-26T04:58:24.582Z,14.73
2019-04-26T04:59:24.553Z,14.73
2019-04-26T05:00:24.542Z,14.82
2019-04-26T05:01:24.534Z,14.82
2019-04-26T05:02:24.569Z,14.86
2019-04-26T05:03:24.515Z,14.85
2019-04-26T05:04:24.505Z,14.91
2019-04-26T05:05:24.486Z,14.92
2019-04-26T05:06:24.478Z,15.00
2019-04-26T05:07:24.495Z,15.04
2019-04-26T05:08:24.453Z,15.07
2019-04-26T05:09:24.502Z,15.00
2019-04-26T05:10:24.458Z,14.99
2019-04-26T05:11:24.425Z,15.04
2019-04-26T05:12:24.481Z,14.97
2019-04-26T05:13:24.402Z,14.99
2019-04-26T05:14:24.408Z,15.02
2019-04-26T05:15:24.393Z,15.03
2019-04-26T05:16:24.399Z,15.03
2019-04-26T05:17:24.421Z,15.03
2019-04-26T05:18:24.342Z,15.09
2019-04-26T05:19:24.347Z,15.10
2019-04-26T05:20:24.323Z,15.00
2019-04-26T05:21:24.328Z,14.99
2019-04-26T05:22:24.303Z,15.09
2019-04-26T05:23:24.343Z,15.07
2019-04-26T05:24:24.281Z,15.10
2019-04-26T05:25:24.265Z,15.00
2019-04-26T05:26:24.273Z,14.96
2019-04-26T05:27:24.271Z,15.07
2019-04-26T05:28:24.285Z,15.14
2019-04-26T05:29:24.225Z,15.03
2019-04-26T05:30:24.227Z,14.99
2019-04-26T05:31:24.204Z,15.06
2019-04-26T05:32:24.200Z,15.03
2019-04-26T05:33:24.255Z,15.00
2019-04-26T05:34:24.202Z,15.07
2019-04-26T05:35:24.161Z,15.19
2019-04-26T05:36:24.162Z,15.11
2019-04-26T05:37:24.146Z,15.18
2019-04-26T05:38:24.138Z,15.18
2019-04-26T05:39:24.150Z,15.27
2019-04-26T05:40:24.105Z,15.36
2019-04-26T05:41:24.099Z,15.36
2019-04-26T05:42:24.097Z,15.37
2019-04-26T05:43:24.075Z,15.35
2019-04-26T05:44:24.085Z,15.36
2019-04-26T05:45:24.088Z,15.49
2019-04-26T05:46:24.036Z,15.47
2019-04-26T05:47:24.033Z,15.46
2019-04-26T05:48:24.017Z,15.36
2019-04-26T05:49:24.034Z,15.54
2019-04-26T05:50:24.026Z,15.55
2019-04-26T05:51:24.053Z,15.61
2019-04-26T05:52:23.970Z,15.64
2019-04-26T05:53:23.965Z,15.61
2019-04-26T05:54:23.967Z,15.62
2019-04-26T05:55:23.950Z,15.58
2019-04-26T05:56:23.976Z,15.62
2019-04-26T05:57:23.917Z,15.62
2019-04-26T05:58:23.906Z,15.59
2019-04-26T05:59:23.972Z,15.61
2019-04-26T06:00:23.891Z,15.62
2019-04-26T06:01:23.934Z,15.59
2019-04-26T06:02:24.058Z,15.55
2019-04-26T06:03:23.852Z,15.57
2019-04-26T06:04:23.842Z,15.49
2019-04-26T06:05:23.828Z,15.59
2019-04-26T06:06:23.849Z,15.59
2019-04-26T06:07:23.841Z,15.62
2019-04-26T06:08:31.062Z,15.68
2019-04-26T06:09:23.793Z,15.67
2019-04-26T06:10:24.385Z,15.61
2019-04-26T06:11:23.767Z,15.72
2019-04-26T06:12:23.819Z,15.61
2019-04-26T06:13:23.758Z,15.64
2019-04-26T06:14:23.726Z,15.62
2019-04-26T06:15:23.728Z,15.59
2019-04-26T06:16:23.722Z,15.54
2019-04-26T06:17:23.707Z,15.62
2019-04-26T06:18:23.735Z,15.68
2019-04-26T06:19:23.682Z,15.68
2019-04-26T06:20:23.728Z,15.84
2019-04-26T06:21:23.654Z,15.75
2019-04-26T06:22:23.676Z,15.79
2019-04-26T06:23:23.675Z,15.77
2019-04-26T06:24:23.646Z,15.80
2019-04-26T06:25:23.608Z,15.84
2019-04-26T06:26:23.605Z,15.84
2019-04-26T06:27:23.619Z,15.80
2019-04-26T06:28:23.592Z,15.91
2019-04-26T06:29:23.628Z,15.86
2019-04-26T06:30:23.563Z,15.88
2019-04-26T06:31:23.551Z,15.86
2019-04-26T06:32:23.570Z,15.88
2019-04-26T06:33:23.555Z,15.90
2019-04-26T06:34:23.609Z,15.86
2019-04-26T06:35:23.521Z,15.84
2019-04-26T06:36:23.606Z,15.88
2019-04-26T06:37:23.483Z,16.04
2019-04-26T06:38:23.474Z,16.10
2019-04-26T06:39:23.467Z,16.21
2019-04-26T06:40:23.485Z,16.20
2019-04-26T06:41:23.451Z,16.42
2019-04-26T06:42:23.419Z,16.41
2019-04-26T06:43:23.415Z,16.42
2019-04-26T06:44:23.437Z,16.56
2019-04-26T06:45:23.427Z,16.38
2019-04-26T06:46:23.390Z,16.36
2019-04-26T06:47:23.387Z,16.41
2019-04-26T06:48:23.356Z,16.33
2019-04-26T06:49:23.358Z,16.43
2019-04-26T06:50:23.375Z,16.43
2019-04-26T06:51:24.937Z,16.46
2019-04-26T06:52:23.324Z,16.56
2019-04-26T06:53:23.323Z,16.53
2019-04-26T06:54:23.289Z,16.65
2019-04-26T06:55:23.283Z,16.76
2019-04-26T06:56:23.366Z,16.74
2019-04-26T06:57:23.259Z,16.91
2019-04-26T06:58:23.271Z,16.93
2019-04-26T06:59:35.511Z,16.93
2019-04-26T07:00:23.238Z,16.93
2019-04-26T07:01:23.270Z,16.94
2019-04-26T07:02:23.225Z,16.87
2019-04-26T07:03:23.228Z,16.99
2019-04-26T07:04:23.184Z,17.08
2019-04-26T07:05:23.211Z,17.06
2019-04-26T07:06:34.488Z,17.16
2019-04-26T07:07:23.147Z,17.16
2019-04-26T07:08:23.216Z,17.16
2019-04-26T07:09:23.162Z,17.15
2019-04-26T07:10:23.129Z,17.20
2019-04-26T07:11:23.115Z,17.19
2019-04-26T07:12:23.098Z,17.20
2019-04-26T07:13:23.092Z,17.29
2019-04-26T07:14:23.110Z,17.27
2019-04-26T07:15:28.631Z,17.27
2019-04-26T07:16:23.438Z,17.29
2019-04-26T07:17:23.075Z,17.38
2019-04-26T07:18:23.051Z,17.41
2019-04-26T07:19:23.848Z,17.34
2019-04-26T07:20:23.045Z,17.29
2019-04-26T07:21:23.017Z,17.34
2019-04-26T07:22:34.853Z,17.33
2019-04-26T07:23:23.979Z,17.41
2019-04-26T07:24:22.965Z,17.46
2019-04-26T07:25:23.030Z,17.49
2019-04-26T07:26:22.953Z,17.49
2019-04-26T07:27:22.968Z,17.56
2019-04-26T07:28:22.951Z,17.59
2019-04-26T07:29:22.914Z,17.71
2019-04-26T07:30:22.954Z,17.46
2019-04-26T07:31:22.903Z,17.56
2019-04-26T07:32:22.916Z,17.59
2019-04-26T07:33:22.874Z,17.59
2019-04-26T07:34:22.884Z,17.36
2019-04-26T07:35:22.839Z,17.46
2019-04-26T07:36:22.828Z,17.51
2019-04-26T07:37:22.829Z,17.52
2019-04-26T07:38:22.853Z,17.57
2019-04-26T07:39:22.840Z,17.59
2019-04-26T07:40:22.785Z,17.64
2019-04-26T07:41:22.792Z,17.68
2019-04-26T07:42:22.794Z,17.68
2019-04-26T07:43:22.789Z,17.71
2019-04-26T07:44:22.772Z,17.64
2019-04-26T07:45:22.753Z,17.67
2019-04-26T07:46:22.719Z,17.78
2019-04-26T07:47:22.712Z,17.71
2019-04-26T07:48:22.708Z,17.82
2019-04-26T07:49:22.726Z,17.92
2019-04-26T07:50:22.687Z,17.98
2019-04-26T07:51:22.683Z,17.94
2019-04-26T07:52:22.660Z,17.98
2019-04-26T07:53:22.642Z,18.00
2019-04-26T07:54:22.862Z,17.97
2019-04-26T07:55:22.622Z,17.86
2019-04-26T07:56:22.622Z,17.92
2019-04-26T07:57:22.597Z,18.08
2019-04-26T07:58:22.605Z,18.04
2019-04-26T07:59:22.575Z,18.08
2019-04-26T08:00:22.596Z,18.16
2019-04-26T08:01:22.556Z,18.13
2019-04-26T08:02:22.565Z,18.11
2019-04-26T08:03:23.315Z,18.19
2019-04-26T08:04:22.543Z,18.20
2019-04-26T08:05:22.572Z,18.20
2019-04-26T08:06:22.518Z,18.20
2019-04-26T08:07:22.495Z,18.33
2019-04-26T08:08:22.488Z,18.31
2019-04-26T08:09:26.829Z,18.29
2019-04-26T08:10:22.455Z,18.31
2019-04-26T08:11:22.479Z,18.34
2019-04-26T08:12:22.448Z,18.29
2019-04-26T08:13:22.434Z,18.33
2019-04-26T08:14:22.424Z,18.25
2019-04-26T08:15:24.863Z,18.28
2019-04-26T08:16:22.450Z,18.40
2019-04-26T08:17:22.386Z,18.47
2019-04-26T08:18:22.369Z,18.50
2019-04-26T08:19:22.371Z,18.56
2019-04-26T08:20:22.377Z,18.66
2019-04-26T08:21:22.413Z,18.62
2019-04-26T08:22:28.265Z,18.73
2019-04-26T08:23:39.193Z,18.74
2019-04-26T08:24:23.323Z,18.65
2019-04-26T08:25:22.301Z,18.80
2019-04-26T08:26:22.284Z,18.70
2019-04-26T08:27:23.946Z,18.80
2019-04-26T08:28:22.808Z,18.89
2019-04-26T08:29:22.265Z,18.96
2019-04-26T08:30:22.915Z,18.98
2019-04-26T08:31:24.352Z,18.95
2019-04-26T08:32:22.217Z,18.96
2019-04-26T08:33:22.223Z,18.96
2019-04-26T08:34:28.867Z,19.04
2019-04-26T08:35:22.201Z,18.99
2019-04-26T08:36:23.190Z,19.12
2019-04-26T08:37:22.173Z,19.12
2019-04-26T08:38:22.879Z,19.24
2019-04-26T08:39:23.381Z,19.22
2019-04-26T08:40:30.289Z,19.18
2019-04-26T08:41:22.133Z,19.31
2019-04-26T08:42:23.838Z,19.27
2019-04-26T08:43:22.609Z,19.44
2019-04-26T08:44:22.117Z,19.33
2019-04-26T08:45:22.084Z,19.29
2019-04-26T08:46:22.079Z,19.26
2019-04-26T08:47:26.316Z,19.45
2019-04-26T08:48:27.471Z,19.45
2019-04-26T08:49:22.095Z,19.39
2019-04-26T08:50:22.224Z,19.44
2019-04-26T08:51:22.171Z,19.49
2019-04-26T08:52:22.021Z,19.54
2019-04-26T08:53:21.993Z,19.45
2019-04-26T08:54:21.989Z,19.52
2019-04-26T08:55:22.007Z,19.47
2019-04-26T08:56:21.952Z,19.47
2019-04-26T08:57:21.947Z,19.52
2019-04-26T08:58:21.968Z,19.58
2019-04-26T08:59:21.927Z,19.67
2019-04-26T09:00:22.037Z,19.73
2019-04-26T09:01:21.911Z,19.84
2019-04-26T09:02:21.887Z,19.86
2019-04-26T09:03:21.957Z,19.89
2019-04-26T09:04:21.865Z,19.92
2019-04-26T09:05:21.873Z,19.95
2019-04-26T09:06:21.888Z,19.95
2019-04-26T09:07:21.836Z,20.02
2019-04-26T09:08:21.824Z,20.14
2019-04-26T09:09:21.833Z,20.10
2019-04-26T09:10:21.799Z,20.18
2019-04-26T09:11:25.970Z,20.07
2019-04-26T09:12:23.172Z,20.16
2019-04-26T09:13:21.781Z,20.09
2019-04-26T09:14:21.821Z,20.04
2019-04-26T09:15:21.773Z,20.19
2019-04-26T09:16:21.751Z,20.14
2019-04-26T09:17:21.739Z,20.18
2019-04-26T09:18:21.720Z,20.19
2019-04-26T09:19:21.725Z,20.22
2019-04-26T09:20:28.608Z,20.37
2019-04-26T09:21:21.682Z,20.28
2019-04-26T09:22:22.588Z,20.40
2019-04-26T09:23:21.675Z,20.31
2019-04-26T09:24:24.918Z,20.19
2019-04-26T09:25:22.792Z,20.19
2019-04-26T09:26:21.781Z,20.26
2019-04-26T09:27:22.566Z,20.36
2019-04-26T09:28:21.616Z,20.41
2019-04-26T09:29:21.597Z,20.29
2019-04-26T09:30:33.280Z,20.40
2019-04-26T09:31:22.650Z,20.13
2019-04-26T09:32:24.222Z,20.14
2019-04-26T09:33:21.644Z,20.07
2019-04-26T09:34:21.578Z,20.03
2019-04-26T09:35:21.537Z,20.11
2019-04-26T09:36:21.532Z,20.14
2019-04-26T09:37:21.535Z,20.16
2019-04-26T09:38:21.515Z,20.32
2019-04-26T09:39:21.491Z,20.29
2019-04-26T09:40:22.809Z,20.43
2019-04-26T09:41:21.467Z,20.41
2019-04-26T09:42:21.473Z,20.43
2019-04-26T09:43:21.474Z,20.48
2019-04-26T09:44:21.437Z,20.52
2019-04-26T09:45:21.432Z,20.52
2019-04-26T09:46:21.465Z,20.39
2019-04-26T09:47:21.398Z,20.47
2019-04-26T09:48:21.408Z,20.51
2019-04-26T09:49:21.381Z,20.62
2019-04-26T09:50:21.364Z,20.58
2019-04-26T09:51:21.373Z,20.65
2019-04-26T09:52:21.380Z,20.77
2019-04-26T09:53:21.341Z,20.80
2019-04-26T09:54:21.328Z,20.87
2019-04-26T09:55:21.334Z,20.87
2019-04-26T09:56:21.302Z,20.95
2019-04-26T09:57:21.352Z,20.97
2019-04-26T09:58:21.308Z,21.02
2019-04-26T09:59:21.265Z,20.97
2019-04-26T10:00:21.278Z,20.95
2019-04-26T10:01:24.202Z,20.88
2019-04-26T10:02:21.245Z,20.84
2019-04-26T10:03:21.261Z,20.74
2019-04-26T10:04:21.213Z,20.74
2019-04-26T10:05:22.153Z,20.72
2019-04-26T10:06:21.197Z,20.72
2019-04-26T10:07:21.180Z,20.78
2019-04-26T10:08:21.227Z,20.67
2019-04-26T10:09:22.721Z,20.72
2019-04-26T10:10:23.144Z,20.65
2019-04-26T10:11:21.138Z,20.65
2019-04-26T10:12:21.145Z,20.65
2019-04-26T10:13:21.152Z,20.51
2019-04-26T10:14:21.113Z,20.48
2019-04-26T10:15:22.617Z,20.52
2019-04-26T10:16:21.085Z,20.67
2019-04-26T10:17:22.309Z,20.69
2019-04-26T10:18:24.524Z,20.65
2019-04-26T10:19:21.058Z,20.69
2019-04-26T10:20:21.155Z,20.70
2019-04-26T10:21:21.029Z,20.80
2019-04-26T10:22:21.016Z,20.75
2019-04-26T10:23:21.066Z,20.80
2019-04-26T10:24:20.993Z,20.87
2019-04-26T10:25:20.991Z,20.84
2019-04-26T10:26:23.167Z,20.88
2019-04-26T10:27:21.968Z,20.90
2019-04-26T10:28:20.951Z,20.87
2019-04-26T10:29:21.695Z,20.92
2019-04-26T10:30:20.936Z,20.85
2019-04-26T10:31:20.948Z,20.84
2019-04-26T10:32:21.598Z,20.85
2019-04-26T10:33:20.905Z,20.77
2019-04-26T10:34:20.938Z,20.85
2019-04-26T10:35:21.717Z,20.85
2019-04-26T10:36:20.879Z,21.06
2019-04-26T10:37:20.870Z,20.96
2019-04-26T10:38:23.895Z,20.82
2019-04-26T10:39:20.840Z,20.80
2019-04-26T10:40:20.872Z,20.74
2019-04-26T10:41:20.830Z,20.84
2019-04-26T10:42:20.841Z,20.84
2019-04-26T10:43:20.796Z,20.75
2019-04-26T10:44:20.809Z,20.85
2019-04-26T10:45:20.773Z,20.85
2019-04-26T10:46:20.771Z,20.78
2019-04-26T10:47:20.763Z,20.80
2019-04-26T10:48:23.029Z,20.63
2019-04-26T10:49:24.728Z,20.70
2019-04-26T10:50:20.745Z,20.63
2019-04-26T10:51:20.726Z,20.78
2019-04-26T10:52:20.755Z,20.87
2019-04-26T10:53:20.729Z,20.92
2019-04-26T10:54:20.682Z,21.03
2019-04-26T10:55:20.671Z,21.05
2019-04-26T10:56:24.210Z,21.03
2019-04-26T10:57:20.639Z,21.12
2019-04-26T10:58:20.633Z,21.18
2019-04-26T10:59:22.747Z,21.15
2019-04-26T11:00:20.609Z,21.09
2019-04-26T11:01:20.594Z,21.22
2019-04-26T11:02:20.589Z,21.18
2019-04-26T11:03:20.571Z,21.22
2019-04-26T11:04:20.612Z,21.33
2019-04-26T11:05:20.552Z,21.33
2019-04-26T11:06:20.554Z,21.40
2019-04-26T11:07:20.532Z,21.48
2019-04-26T11:08:20.526Z,21.55
2019-04-26T11:09:20.569Z,21.62
2019-04-26T11:10:20.517Z,21.72
2019-04-26T11:11:20.491Z,21.76
2019-04-26T11:12:20.487Z,21.67
2019-04-26T11:13:20.467Z,21.80
2019-04-26T11:14:22.617Z,21.77
2019-04-26T11:15:20.779Z,21.72
2019-04-26T11:16:20.432Z,21.73
2019-04-26T11:17:20.459Z,21.69
2019-04-26T11:18:27.385Z,21.67
2019-04-26T11:19:20.402Z,21.51
2019-04-26T11:20:20.396Z,21.67
2019-04-26T11:21:21.210Z,21.62
2019-04-26T11:22:29.028Z,21.46
2019-04-26T11:23:20.413Z,21.51
2019-04-26T11:24:20.919Z,21.54
2019-04-26T11:25:20.339Z,21.62
2019-04-26T11:26:20.332Z,21.72
2019-04-26T11:27:20.334Z,21.75
2019-04-26T11:28:21.279Z,21.75
2019-04-26T11:29:20.298Z,21.80
2019-04-26T11:30:21.154Z,21.82
2019-04-26T11:31:23.301Z,21.75
2019-04-26T11:32:20.267Z,21.69
2019-04-26T11:33:20.290Z,21.67
2019-04-26T11:34:23.702Z,21.66
2019-04-26T11:35:20.355Z,21.52
2019-04-26T11:36:20.302Z,21.48
2019-04-26T11:37:20.253Z,21.42
2019-04-26T11:38:21.872Z,21.43
2019-04-26T11:39:20.251Z,21.54
2019-04-26T11:40:20.186Z,21.61
2019-04-26T11:41:20.183Z,21.66
2019-04-26T11:42:20.148Z,21.64
2019-04-26T11:43:21.094Z,21.72
2019-04-26T11:44:23.374Z,21.75
2019-04-26T11:45:20.122Z,21.82
2019-04-26T11:46:21.411Z,21.88
2019-04-26T11:47:20.113Z,21.82
2019-04-26T11:48:20.088Z,21.77
2019-04-26T11:49:20.078Z,21.77
2019-04-26T11:50:20.152Z,21.82
2019-04-26T11:51:23.578Z,21.88
2019-04-26T11:52:20.057Z,21.96
2019-04-26T11:53:20.049Z,21.92
2019-04-26T11:54:20.744Z,21.91
2019-04-26T11:55:20.065Z,21.82
2019-04-26T11:56:20.028Z,21.75
2019-04-26T11:57:19.990Z,21.75
2019-04-26T11:58:22.525Z,21.72
2019-04-26T11:59:19.975Z,21.80
2019-04-26T12:00:19.956Z,21.82
2019-04-26T12:01:19.976Z,21.82
2019-04-26T12:02:19.975Z,21.82
2019-04-26T12:03:21.145Z,21.75
2019-04-26T12:04:19.921Z,21.77
2019-04-26T12:05:19.903Z,21.67
2019-04-26T12:06:21.370Z,21.66
2019-04-26T12:07:19.894Z,21.62
2019-04-26T12:08:19.870Z,21.64
2019-04-26T12:09:19.865Z,21.64
2019-04-26T12:10:19.865Z,21.70
2019-04-26T12:11:28.949Z,21.69
2019-04-26T12:12:19.851Z,21.76
2019-04-26T12:13:21.313Z,21.77
2019-04-26T12:14:20.689Z,21.77
2019-04-26T12:15:30.074Z,21.83
2019-04-26T12:16:20.463Z,21.73
2019-04-26T12:17:19.773Z,21.72
2019-04-26T12:18:19.830Z,21.70
2019-04-26T12:19:19.886Z,21.66
2019-04-26T12:20:22.345Z,21.66
2019-04-26T12:21:20.757Z,21.76
2019-04-26T12:22:19.719Z,21.64
2019-04-26T12:23:21.684Z,21.61
2019-04-26T12:24:19.713Z,21.62
2019-04-26T12:25:19.701Z,21.75
2019-04-26T12:26:21.751Z,21.75
2019-04-26T12:27:19.841Z,21.73
2019-04-26T12:28:19.683Z,21.77
2019-04-26T12:29:19.652Z,21.79
2019-04-26T12:30:19.633Z,21.76
2019-04-26T12:31:20.225Z,21.62
2019-04-26T12:32:19.616Z,21.60
2019-04-26T12:33:19.624Z,21.55
2019-04-26T12:34:19.596Z,21.54
2019-04-26T12:35:19.597Z,21.42
2019-04-26T12:36:19.568Z,21.48
2019-04-26T12:37:20.922Z,21.48
2019-04-26T12:38:19.555Z,21.57
2019-04-26T12:39:19.549Z,21.52
2019-04-26T12:40:19.633Z,21.39
2019-04-26T12:41:25.284Z,21.43
2019-04-26T12:42:19.551Z,21.39
2019-04-26T12:43:20.038Z,21.51
2019-04-26T12:44:19.598Z,21.51
2019-04-26T12:45:19.536Z,21.50
2019-04-26T12:46:22.737Z,21.62
2019-04-26T12:47:19.464Z,21.61
2019-04-26T12:48:19.442Z,21.66
2019-04-26T12:49:20.367Z,21.48
2019-04-26T12:50:19.448Z,21.54
2019-04-26T12:51:19.424Z,21.48
2019-04-26T12:52:21.658Z,21.36